Time;durP1;ratioP1;P1;durP2;ratioP2;P2;SDS_P1;SDS_P2;PMS_P1;PMS_P2;Temp;Humidity;BMP_temperature;BMP_pressure;BME280_temperature;BME280_humidity;BME280_pressure;Samples;Min_cycle;Max_cycle;Signal;HPM_P1;HPM_P2
2022/01/20 00:02:18;;;;;;;74.67;31.65;;;;;;;-2.67;100.00;100063.58;1773275;80;21141;-72
2022/01/20 00:07:42;;;;;;;74.05;33.63;;;;;;;-2.71;100.00;100059.20;1780802;80;21545;-71
2022/01/20 00:23:08;;;;;;;69.32;28.57;;;;;;;-2.72;100.00;100062.64;1778611;80;21830;-73
2022/01/20 00:25:47;;;;;;;91.12;37.42;;;;;;;-2.78;100.00;100066.87;1743012;82;21057;-71
2022/01/20 00:28:46;;;;;;;73.15;31.57;;;;;;;-2.75;100.00;100063.03;1779744;79;21058;-72
2022/01/20 00:33:50;;;;;;;66.47;28.00;;;;;;;-2.73;100.00;100053.19;1780939;80;21053;-73
2022/01/20 00:38:43;;;;;;;76.00;31.15;;;;;;;-2.70;100.00;100036.05;1780452;80;21113;-71
2022/01/20 00:41:15;;;;;;;171.95;59.30;;;;;;;-2.68;100.00;100030.92;1780706;79;21782;-72
2022/01/20 00:43:39;;;;;;;149.57;52.10;;;;;;;-2.67;100.00;100024.91;1780180;80;21057;-76
2022/01/20 00:46:06;;;;;;;170.47;57.90;;;;;;;-2.66;100.00;100019.78;1780160;80;21097;-69
2022/01/20 00:48:33;;;;;;;153.85;53.25;;;;;;;-2.64;100.00;100015.52;1780565;80;21564;-69
2022/01/20 00:50:59;;;;;;;323.25;116.53;;;;;;;-2.62;100.00;100016.41;1780557;80;21057;-68
2022/01/20 00:53:27;;;;;;;154.45;55.25;;;;;;;-2.61;100.00;100007.81;1780366;80;21549;-70
2022/01/20 00:55:54;;;;;;;129.40;49.23;;;;;;;-2.56;100.00;100006.59;1780521;80;21540;-70
2022/01/20 00:58:20;;;;;;;86.40;37.00;;;;;;;-2.56;100.00;99998.86;1780238;80;21045;-69
2022/01/20 01:00:47;;;;;;;78.83;31.10;;;;;;;-2.56;100.00;100004.02;1780439;79;20998;-69
2022/01/20 01:03:13;;;;;;;57.30;25.08;;;;;;;-2.58;100.00;99994.09;1780340;80;21135;-70
2022/01/20 01:05:53;;;;;;;98.85;38.00;;;;;;;-2.60;100.00;99994.50;1780634;80;21158;-70
2022/01/20 01:08:08;;;;;;;69.58;29.52;;;;;;;-2.61;100.00;99996.64;1777523;80;21073;-69
2022/01/20 01:10:38;;;;;;;68.45;30.88;;;;;;;-2.59;100.00;99993.67;1780947;80;21608;-68
2022/01/20 01:13:08;;;;;;;71.47;30.45;;;;;;;-2.62;100.00;99990.62;1780425;80;21052;-69
2022/01/20 01:15:37;;;;;;;64.67;25.80;;;;;;;-2.61;100.00;99997.94;1769396;80;21073;-71
2022/01/20 01:23:39;;;;;;;141.97;52.53;;;;;;;-2.63;100.00;99993.17;1741890;82;21067;-71
2022/01/20 01:26:09;;;;;;;123.80;45.30;;;;;;;-2.62;100.00;99987.19;1741717;82;21034;-70
2022/01/20 01:28:36;;;;;;;84.20;34.73;;;;;;;-2.64;100.00;99982.44;1742149;82;21034;-71
2022/01/20 01:31:29;;;;;;;106.85;41.65;;;;;;;-2.64;100.00;99974.70;1741828;81;21070;-71
2022/01/20 01:33:49;;;;;;;105.92;40.90;;;;;;;-2.62;100.00;99970.00;1740064;81;21081;-71
2022/01/20 01:36:12;;;;;;;97.20;39.00;;;;;;;-2.70;100.00;99950.97;1742197;81;21066;-72
2022/01/20 01:38:36;;;;;;;73.85;32.40;;;;;;;-2.62;100.00;99957.55;1741650;81;21030;-70
2022/01/20 01:41:14;;;;;;;84.87;32.53;;;;;;;-2.62;100.00;99941.64;1741558;82;20990;-71
2022/01/20 01:43:44;;;;;;;72.55;29.48;;;;;;;-2.63;100.00;99945.48;1741669;81;21767;-72
2022/01/20 01:46:12;;;;;;;;;;;;;;;-2.65;100.00;99941.58;1744553;81;21062;-71
2022/01/20 01:48:42;;;;;;;103.38;40.48;;;;;;;-2.65;100.00;99936.42;1741909;82;20145;-71
2022/01/20 01:51:09;;;;;;;119.40;45.78;;;;;;;-2.68;100.00;99938.11;1741792;82;21009;-71
2022/01/20 01:53:39;;;;;;;150.42;52.90;;;;;;;-2.68;100.00;99935.54;1742067;81;21553;-70
2022/01/20 01:56:06;;;;;;;140.20;51.02;;;;;;;-2.66;100.00;99936.42;1741942;82;21567;-71
2022/01/20 01:58:36;;;;;;;111.80;40.17;;;;;;;-2.66;100.00;99933.84;1743675;80;21056;-72
2022/01/20 02:01:06;;;;;;;152.65;55.10;;;;;;;-2.69;100.00;99933.39;1748463;79;21618;-71
2022/01/20 02:03:43;;;;;;;121.17;44.73;;;;;;;-2.67;100.00;99924.36;1731107;82;21069;-69
2022/01/20 02:19:55;;;;;;;166.10;57.58;;;;;;;-2.69;100.00;99904.14;1749884;81;21176;-70
2022/01/20 02:22:28;;;;;;;71.97;28.47;;;;;;;-2.67;100.00;99899.88;1732850;82;22281;-70
2022/01/20 02:25:23;;;;;;;61.23;24.55;;;;;;;-2.67;100.00;99898.59;1732854;82;21028;-70
2022/01/20 02:27:50;;;;;;;51.88;22.90;;;;;;;-2.67;100.00;99903.74;1734717;82;21130;-70
2022/01/20 02:30:18;;;;;;;54.63;22.35;;;;;;;-2.68;100.00;99896.87;1734969;82;21580;-71
2022/01/20 02:32:57;;;;;;;70.52;29.35;;;;;;;-2.65;100.00;99889.16;1734815;82;21095;-70
2022/01/20 02:35:26;;;;;;;152.30;54.88;;;;;;;-2.66;100.00;99880.58;1734919;82;21121;-71
2022/01/20 02:38:01;;;;;;;140.55;48.68;;;;;;;-2.64;100.00;99877.59;1734699;82;21557;-70
2022/01/20 02:45:40;;;;;;;97.02;35.98;;;;;;;-2.57;100.00;99864.36;1735255;82;21130;-69
2022/01/20 02:48:07;;;;;;;89.50;37.42;;;;;;;-2.58;100.00;99858.73;1748957;80;21841;-69
2022/01/20 02:50:33;;;;;;;66.20;29.77;;;;;;;-2.57;100.00;99851.03;1764601;80;21046;-70
2022/01/20 02:53:00;;;;;;;73.40;28.05;;;;;;;-2.58;100.00;99852.30;1764817;80;21034;-71
2022/01/20 02:55:28;;;;;;;71.67;30.35;;;;;;;-2.58;100.00;99853.58;1737002;81;21105;-70
2022/01/20 02:57:54;;;;;;;70.25;27.98;;;;;;;-2.58;100.00;99852.30;1765300;81;21069;-69
2022/01/20 03:00:21;;;;;;;65.28;27.70;;;;;;;-2.58;100.00;99848.42;1762271;81;21130;-71
2022/01/20 03:02:49;;;;;;;61.68;26.55;;;;;;;-2.58;100.00;99840.69;1738287;80;21061;-73
2022/01/20 03:05:16;;;;;;;68.52;28.38;;;;;;;-2.59;100.00;99835.11;1734545;82;21597;-70
2022/01/20 03:07:46;;;;;;;79.30;32.47;;;;;;;-2.57;100.00;99833.41;1734730;82;21049;-69
2022/01/20 03:10:12;;;;;;;102.00;39.70;;;;;;;-2.58;100.00;99829.98;1734765;82;21065;-71
2022/01/20 03:12:39;;;;;;;171.32;61.40;;;;;;;-2.55;100.00;99833.02;1734457;82;21707;-70
2022/01/20 03:15:07;;;;;;;108.72;42.55;;;;;;;-2.52;100.00;99827.02;1740894;82;21056;-69
2022/01/20 03:17:34;;;;;;;148.00;49.85;;;;;;;-2.50;100.00;99818.88;1749782;82;21584;-70
2022/01/20 03:20:03;;;;;;;92.80;36.10;;;;;;;-2.50;100.00;99814.58;1748653;81;21751;-74
2022/01/20 03:22:30;;;;;;;114.97;43.68;;;;;;;-2.47;100.00;99814.61;1746697;82;21056;-69
2022/01/20 03:24:57;;;;;;;163.47;58.10;;;;;;;-2.47;100.00;99804.29;1746732;82;21774;-71
2022/01/20 03:27:26;;;;;;;175.85;56.08;;;;;;;-2.46;100.00;99799.98;1746464;82;21054;-69
2022/01/20 03:29:52;;;;;;;92.45;39.60;;;;;;;-2.46;100.00;99798.30;1734092;82;21098;-69
2022/01/20 03:32:18;;;;;;;87.00;35.90;;;;;;;-2.45;100.00;99796.15;1748114;82;21576;-69
2022/01/20 03:34:45;;;;;;;84.32;34.00;;;;;;;-2.45;100.00;99792.28;1748088;82;21652;-70
2022/01/20 03:37:13;;;;;;;73.60;30.95;;;;;;;-2.46;100.00;99790.56;1720798;82;21474;-69
2022/01/20 03:39:59;;;;;;;60.65;24.77;;;;;;;-2.47;100.00;99787.53;1748247;82;21084;-71
2022/01/20 03:42:26;;;;;;;62.53;28.07;;;;;;;-2.48;100.00;99783.23;1748031;82;21033;-70
2022/01/20 03:44:53;;;;;;;66.70;28.40;;;;;;;-2.47;100.00;99775.06;1748795;82;21347;-69
2022/01/20 03:47:24;;;;;;;70.90;28.70;;;;;;;-2.48;100.00;99778.08;1748340;82;21883;-69
2022/01/20 03:52:28;;;;;;;103.65;40.00;;;;;;;-2.54;100.00;99774.99;1720166;82;21041;-68
2022/01/20 03:54:55;;;;;;;192.85;63.50;;;;;;;-2.58;100.00;99773.66;1748405;82;21022;-68
2022/01/20 03:57:37;;;;;;;125.55;49.48;;;;;;;-2.63;100.00;99761.16;1748102;81;21053;-69
2022/01/20 04:00:10;;;;;;;182.93;63.83;;;;;;;-2.66;100.00;99761.12;1740217;82;21079;-68
2022/01/20 04:02:41;;;;;;;116.45;41.80;;;;;;;-2.71;100.00;99758.91;1717336;83;21660;-66
2022/01/20 04:05:10;;;;;;;108.72;42.62;;;;;;;-2.76;100.00;99755.88;1707011;83;21056;-66
2022/01/20 04:07:40;;;;;;;78.90;31.30;;;;;;;-2.79;100.00;99753.25;1717465;83;21564;-67
2022/01/20 04:10:08;;;;;;;76.02;31.00;;;;;;;-2.82;100.00;99758.38;1717147;83;21164;-68
2022/01/20 04:12:35;;;;;;;74.75;32.08;;;;;;;-2.86;100.00;99754.03;1717614;83;21088;-69
2022/01/20 04:15:08;;;;;;;69.87;32.30;;;;;;;-2.87;100.00;99752.31;1723352;82;21960;-69
2022/01/20 04:17:34;;;;;;;68.80;30.53;;;;;;;-2.89;100.00;99746.28;1741785;82;21073;-70
2022/01/20 04:20:03;;;;;;;64.30;30.27;;;;;;;-2.90;100.00;99746.25;1741880;82;21100;-70
2022/01/20 04:22:30;;;;;;;81.72;32.35;;;;;;;-2.92;100.00;99740.21;1741786;82;21013;-70
2022/01/20 04:24:57;;;;;;;115.03;40.25;;;;;;;-2.95;100.00;99734.17;1741832;82;21498;-68
2022/01/20 04:27:23;;;;;;;96.92;38.50;;;;;;;-2.99;100.00;99724.70;1741939;82;21715;-71
2022/01/20 04:29:50;;;;;;;111.17;42.85;;;;;;;-2.99;100.00;99728.57;1741776;82;21098;-67
2022/01/20 04:32:17;;;;;;;86.40;35.25;;;;;;;-2.99;100.00;99721.23;1741878;82;21108;-66
2022/01/20 04:34:44;;;;;;;104.53;38.53;;;;;;;-3.03;100.00;99714.34;1741907;82;21574;-68
2022/01/20 04:37:12;;;;;;;188.68;65.00;;;;;;;-3.05;100.00;99713.46;1742099;82;21639;-67
2022/01/20 04:39:45;;;;;;;150.90;48.52;;;;;;;-3.07;100.00;99710.00;1741711;82;21144;-68
2022/01/20 04:42:09;;;;;;;103.65;40.80;;;;;;;-3.07;100.00;99712.58;1768413;80;21052;-66
2022/01/20 04:44:46;;;;;;;99.35;38.50;;;;;;;-3.09;100.00;99707.40;1772737;80;21009;-67
2022/01/20 04:57:52;;;;;;;109.80;33.35;;;;;;;-3.17;100.00;99681.56;1761612;80;21093;-73
2022/01/20 05:00:19;;;;;;;89.42;34.95;;;;;;;-3.17;100.00;99677.70;1772012;80;21037;-74
2022/01/20 05:03:05;;;;;;;72.27;26.45;;;;;;;-3.19;100.00;99682.40;1771900;80;21033;-72
2022/01/20 05:05:34;;;;;;;99.13;38.42;;;;;;;-3.22;100.00;99671.64;1772255;80;20994;-74
2022/01/20 05:08:18;;;;;;;73.65;30.88;;;;;;;-3.23;100.00;99666.03;1771041;80;21022;-73
2022/01/20 05:10:43;;;;;;;77.20;32.05;;;;;;;-3.23;100.00;99668.61;1770441;80;21108;-74
2022/01/20 05:13:22;;;;;;;73.43;30.13;;;;;;;-3.23;100.00;99666.03;1731700;80;21041;-74
2022/01/20 05:15:41;;;;;;;67.70;26.52;;;;;;;-3.22;100.00;99665.60;1752733;80;21073;-65
2022/01/20 05:18:08;;;;;;;51.75;19.17;;;;;;;-3.24;100.00;99659.17;1748120;81;21192;-66
2022/01/20 05:20:37;;;;;;;47.88;19.80;;;;;;;-3.26;100.00;99656.14;1738802;81;21062;-64
2022/01/20 05:23:03;;;;;;;68.55;29.37;;;;;;;-3.26;100.00;99657.42;1741739;81;21025;-67
2022/01/20 05:25:30;;;;;;;69.40;25.57;;;;;;;-3.29;100.00;99654.80;1748761;81;21633;-65
2022/01/20 05:27:57;;;;;;;68.67;27.73;;;;;;;-3.33;100.00;99651.34;1748995;81;21138;-65
2022/01/20 05:30:23;;;;;;;65.50;28.30;;;;;;;-3.30;100.00;99655.66;1735142;82;21125;-65
2022/01/20 05:33:04;;;;;;;69.03;29.18;;;;;;;-3.34;100.00;99654.74;1729395;82;21075;-66
2022/01/20 05:35:32;;;;;;;44.98;20.12;;;;;;;-3.35;100.00;99645.30;1734974;81;21035;-66
2022/01/20 05:37:59;;;;;;;50.60;20.65;;;;;;;-3.38;100.00;99647.86;1745674;81;21041;-67
2022/01/20 05:40:27;;;;;;;66.87;28.38;;;;;;;-3.38;100.00;99643.99;1750686;81;21037;-67
2022/01/20 05:42:55;;;;;;;67.97;28.83;;;;;;;-3.37;100.00;99641.84;1686012;85;22194;-66
2022/01/20 05:45:23;;;;;;;66.95;26.20;;;;;;;-3.39;100.00;99649.97;1750943;81;21485;-66
2022/01/20 05:47:59;;;;;;;70.60;28.95;;;;;;;-3.40;100.00;99656.84;1720137;81;21657;-68
2022/01/20 05:50:37;;;;;;;63.70;22.55;;;;;;;-3.39;100.00;99656.41;1764468;81;21007;-66
2022/01/20 05:53:05;;;;;;;57.73;25.12;;;;;;;-3.40;100.00;99653.41;1765069;81;21121;-68
2022/01/20 05:55:32;;;;;;;67.60;23.53;;;;;;;-3.38;100.00;99653.00;1765609;81;21739;-66
2022/01/20 05:57:58;;;;;;;57.65;24.82;;;;;;;-3.40;100.00;99649.55;1762687;81;21053;-67
2022/01/20 06:00:25;;;;;;;51.23;20.63;;;;;;;-3.38;100.00;99646.56;1754348;81;21280;-64
2022/01/20 06:05:42;;;;;;;70.43;28.03;;;;;;;-3.37;100.00;99646.99;1761077;81;21101;-64
2022/01/20 06:08:11;;;;;;;76.33;31.67;;;;;;;-3.35;100.00;99646.59;1764682;80;21769;-64
2022/01/20 06:10:40;;;;;;;89.40;33.65;;;;;;;-3.31;100.00;99641.03;1737980;81;21074;-65
2022/01/20 06:13:20;;;;;;;44.80;17.40;;;;;;;-3.29;100.00;99641.92;1765109;80;21598;-63
2022/01/20 06:15:49;;;;;;;50.67;18.23;;;;;;;-3.29;100.00;99632.51;1765453;80;21057;-65
2022/01/20 06:18:15;;;;;;;55.03;23.37;;;;;;;-3.27;100.00;99630.78;1765147;81;20998;-65
2022/01/20 06:20:44;;;;;;;63.93;25.23;;;;;;;-3.26;100.00;99628.66;1748950;81;22047;-63
2022/01/20 06:23:11;;;;;;;57.70;25.30;;;;;;;-3.21;100.00;99628.28;1712875;82;21055;-64
2022/01/20 06:25:41;;;;;;;43.97;19.70;;;;;;;-3.18;100.00;99626.16;1751951;81;21007;-64
2022/01/20 06:28:08;;;;;;;44.88;19.02;;;;;;;-3.16;100.00;99634.34;1762628;81;21081;-65
2022/01/20 06:30:35;;;;;;;51.15;23.15;;;;;;;-3.12;100.00;99631.81;1755887;80;21094;-64
2022/01/20 06:33:03;;;;;;;41.98;18.90;;;;;;;-3.03;100.00;99636.63;1744341;81;21140;-64
2022/01/20 06:35:33;;;;;;;48.50;19.15;;;;;;;-2.98;100.00;99631.09;1739366;81;21070;-64
2022/01/20 06:38:00;;;;;;;58.25;23.98;;;;;;;-2.92;100.00;99629.02;1743978;82;21076;-63
2022/01/20 06:40:27;;;;;;;48.33;19.40;;;;;;;-2.86;100.00;99623.03;1758750;81;21079;-64
2022/01/20 06:42:54;;;;;;;97.95;37.90;;;;;;;-2.81;100.00;99615.77;1749124;81;21073;-67
2022/01/20 06:45:23;;;;;;;91.05;33.95;;;;;;;-2.74;100.00;99614.11;1753655;81;22127;-65
2022/01/20 06:47:51;;;;;;;96.02;36.85;;;;;;;-2.65;100.00;99603.02;1741417;82;21057;-65
2022/01/20 06:50:18;;;;;;;66.00;24.80;;;;;;;-2.65;100.00;99597.44;1741780;82;21061;-64
2022/01/20 06:52:46;;;;;;;81.75;29.20;;;;;;;-2.62;100.00;99588.45;1741256;82;21058;-64
2022/01/20 06:55:12;;;;;;;51.60;19.07;;;;;;;-2.54;100.00;99600.10;1741065;82;21726;-64
2022/01/20 06:57:39;;;;;;;61.30;22.48;;;;;;;-2.50;100.00;99596.70;1741319;82;21754;-64
2022/01/20 07:00:13;;;;;;;54.45;24.57;;;;;;;-2.51;100.00;99586.36;1740798;82;21038;-65
2022/01/20 07:02:41;;;;;;;52.17;21.52;;;;;;;-2.49;100.00;99581.66;1744226;81;21031;-66
2022/01/20 07:05:14;;;;;;;50.55;17.77;;;;;;;-2.45;100.00;99582.13;1757497;81;21211;-63
2022/01/20 07:07:41;;;;;;;37.33;15.75;;;;;;;-2.44;100.00;99582.58;1765270;81;21077;-63
2022/01/20 07:10:16;;;;;;;48.85;19.48;;;;;;;-2.45;100.00;99580.83;1764901;80;21131;-65
2022/01/20 07:12:45;;;;;;;56.58;23.57;;;;;;;-2.45;100.00;99569.23;1764894;80;21719;-65
2022/01/20 07:15:13;;;;;;;65.92;29.23;;;;;;;-2.46;100.00;99571.38;1765206;80;21065;-65
2022/01/20 07:17:41;;;;;;;98.65;36.35;;;;;;;-2.37;100.00;99568.86;1764928;80;21066;-63
2022/01/20 07:20:09;;;;;;;97.67;36.55;;;;;;;-2.26;100.00;99570.62;1755404;81;21041;-64
2022/01/20 07:22:41;;;;;;;52.05;23.12;;;;;;;-2.18;100.00;99563.81;1744469;82;21282;-67
2022/01/20 07:25:08;;;;;;;64.58;28.23;;;;;;;-2.08;100.00;99563.42;1749677;81;21045;-64
2022/01/20 07:30:41;;;;;;;36.97;18.37;;;;;;;-1.85;98.68;99566.11;1801627;78;22656;-65
2022/01/20 07:33:08;;;;;;;52.85;22.30;;;;;;;-1.81;98.07;99561.40;1773723;80;21928;-63
2022/01/20 07:35:36;;;;;;;53.80;19.73;;;;;;;-1.69;97.71;99567.89;1786329;80;21756;-67
2022/01/20 07:38:05;;;;;;;57.58;21.85;;;;;;;-1.40;96.44;99576.13;1786382;80;21685;-65
2022/01/20 07:40:32;;;;;;;43.55;18.57;;;;;;;-1.12;95.53;99575.34;1741777;80;21138;-64
2022/01/20 07:42:59;;;;;;;39.38;18.70;;;;;;;-0.91;92.59;99571.06;1725512;83;21528;-63
2022/01/20 07:45:32;;;;;;;37.75;16.82;;;;;;;-0.72;91.52;99570.19;1724344;83;21596;-65
2022/01/20 07:48:09;;;;;;;44.25;18.70;;;;;;;-0.44;89.71;99566.28;1714845;81;21103;-63
2022/01/20 07:50:37;;;;;;;52.10;22.05;;;;;;;-0.23;87.85;99558.50;1743384;81;20986;-65
2022/01/20 07:53:06;;;;;;;43.60;18.05;;;;;;;-0.05;86.70;99552.82;1747075;81;21112;-65
2022/01/20 07:55:32;;;;;;;63.70;28.27;;;;;;;0.06;84.99;99551.06;1748613;81;21159;-65
2022/01/20 07:58:03;;;;;;;70.72;27.10;;;;;;;0.26;85.90;99542.36;1746457;81;21352;-65
2022/01/20 08:00:32;;;;;;;76.28;30.20;;;;;;;0.53;83.67;99547.41;1749840;81;21198;-64
2022/01/20 08:02:59;;;;;;;48.73;21.30;;;;;;;0.69;83.74;99535.63;1751785;81;21112;-65
2022/01/20 08:05:30;;;;;;;49.58;19.85;;;;;;;0.87;81.33;99536.80;1750696;81;21092;-64
2022/01/20 08:07:57;;;;;;;49.13;18.62;;;;;;;0.97;79.76;99530.69;1745153;81;21076;-65
2022/01/20 08:10:24;;;;;;;42.45;16.65;;;;;;;1.08;79.12;99528.44;1747352;81;21100;-65
2022/01/20 08:12:51;;;;;;;50.08;21.35;;;;;;;0.98;78.12;99529.80;1755668;81;21061;-65
2022/01/20 08:15:22;;;;;;;35.10;16.82;;;;;;;0.89;79.34;99525.98;1750147;81;21580;-65
2022/01/20 08:17:53;;;;;;;51.08;22.50;;;;;;;0.78;78.81;99536.86;1751491;81;21040;-65
2022/01/20 08:20:20;;;;;;;49.20;20.27;;;;;;;0.90;80.28;99537.20;1750124;81;21021;-65
2022/01/20 08:22:48;;;;;;;46.08;21.57;;;;;;;1.04;78.72;99533.66;1749585;80;21128;-66
2022/01/20 08:25:18;;;;;;;70.78;27.27;;;;;;;1.13;77.86;99532.73;1751183;81;21088;-65
2022/01/20 08:27:46;;;;;;;93.37;34.58;;;;;;;1.27;77.23;99535.20;1754860;81;21115;-64
2022/01/20 08:30:17;;;;;;;47.43;20.00;;;;;;;1.65;77.43;99524.88;1743672;81;21532;-63
2022/01/20 08:32:44;;;;;;;91.35;36.58;;;;;;;2.15;73.78;99535.13;1749273;81;21071;-65
2022/01/20 08:35:13;;;;;;;58.65;27.90;;;;;;;2.38;74.87;99530.09;1718132;81;21879;-68
2022/01/20 08:37:50;;;;;;;80.92;34.30;;;;;;;2.88;72.89;99525.91;1712912;82;22714;-67
2022/01/20 08:40:22;;;;;;;65.78;28.35;;;;;;;3.10;67.38;99519.45;1749881;81;21141;-65
2022/01/20 08:42:49;;;;;;;45.05;20.27;;;;;;;3.19;65.94;99515.00;1749996;82;21049;-66
2022/01/20 08:45:18;;;;;;;51.92;22.45;;;;;;;3.23;63.65;99508.87;1749835;82;21076;-65
2022/01/20 08:47:44;;;;;;;58.75;24.15;;;;;;;3.45;63.54;99510.22;1749418;81;21082;-65
2022/01/20 08:50:12;;;;;;;48.75;23.80;;;;;;;3.69;62.06;99506.28;1740066;82;22042;-66
2022/01/20 08:52:39;;;;;;;45.63;20.27;;;;;;;3.79;61.16;99505.21;1739649;82;21014;-65
2022/01/20 08:55:07;;;;;;;39.27;17.20;;;;;;;3.87;60.50;99502.48;1744252;81;21095;-65
2022/01/20 08:57:45;;;;;;;39.30;18.55;;;;;;;3.57;59.75;99499.57;1749434;82;21041;-66
2022/01/20 09:00:14;;;;;;;66.75;27.65;;;;;;;2.98;61.18;99501.46;1749394;82;21081;-65
2022/01/20 09:02:42;;;;;;;53.75;23.60;;;;;;;2.68;61.75;99494.55;1747623;82;21100;-65
2022/01/20 09:05:09;;;;;;;58.08;26.42;;;;;;;2.52;61.37;99486.12;1749929;80;21022;-65
2022/01/20 09:07:52;;;;;;;60.15;25.50;;;;;;;2.22;61.71;99485.26;1747686;82;21120;-64
2022/01/20 09:10:20;;;;;;;71.37;32.38;;;;;;;2.05;62.82;99478.55;1749810;82;21026;-64
2022/01/20 09:15:36;;;;;;;44.60;19.32;;;;;;;2.18;62.09;99471.88;1750067;82;21247;-66
2022/01/20 09:18:09;;;;;;;50.10;21.12;;;;;;;2.29;61.67;99468.26;1747562;82;21037;-64
2022/01/20 09:20:42;;;;;;;51.60;22.22;;;;;;;2.51;61.47;99449.77;1750019;82;21568;-64
2022/01/20 09:23:07;;;;;;;57.10;22.27;;;;;;;2.75;60.04;99443.31;1748523;82;21092;-65
2022/01/20 09:25:34;;;;;;;43.90;17.48;;;;;;;3.01;59.71;99435.52;1750331;82;21065;-65
2022/01/20 09:28:01;;;;;;;61.40;25.55;;;;;;;3.32;57.78;99428.03;1749712;82;21882;-66
2022/01/20 09:30:29;;;;;;;49.60;21.52;;;;;;;3.68;58.48;99428.19;1744717;81;21065;-65
2022/01/20 09:33:24;;;;;;;69.87;27.90;;;;;;;4.16;56.70;99419.80;1725178;82;21052;-63
2022/01/20 09:35:34;;;;;;;68.45;25.15;;;;;;;4.49;55.96;99415.16;1712798;82;21033;-65
2022/01/20 09:38:02;;;;;;;61.80;27.70;;;;;;;4.57;54.34;99418.42;1695499;82;21092;-65
2022/01/20 09:40:30;;;;;;;84.15;34.65;;;;;;;4.47;55.27;99406.50;1717739;83;21242;-64
2022/01/20 09:42:59;;;;;;;48.57;22.63;;;;;;;4.40;56.33;99406.64;1717147;83;22006;-65
2022/01/20 09:45:26;;;;;;;63.40;27.30;;;;;;;4.64;53.40;99396.51;1717591;83;21056;-64
2022/01/20 09:47:53;;;;;;;71.10;29.72;;;;;;;4.61;53.84;99400.50;1717588;83;21053;-64
2022/01/20 09:50:31;;;;;;;47.75;21.33;;;;;;;4.70;53.39;99394.21;1648697;86;21108;-65
2022/01/20 09:53:07;;;;;;;50.25;23.57;;;;;;;4.99;52.50;99387.81;1735486;82;21730;-65
2022/01/20 09:55:46;;;;;;;38.08;19.00;;;;;;;5.24;51.65;99378.88;1735479;82;21060;-63
2022/01/20 09:58:13;;;;;;;38.95;18.15;;;;;;;5.46;50.31;99381.73;1737024;82;21072;-63
2022/01/20 10:00:43;;;;;;;49.15;24.05;;;;;;;5.53;50.50;99368.05;1740761;82;21061;-66
2022/01/20 10:03:13;;;;;;;59.03;25.92;;;;;;;5.59;51.67;99373.54;1732799;82;21137;-65
2022/01/20 10:05:47;;;;;;;103.47;42.85;;;;;;;5.89;51.69;99360.05;1723107;82;21167;-64
2022/01/20 10:08:26;;;;;;;55.95;23.90;;;;;;;6.29;53.76;99346.61;1712737;82;21120;-66
2022/01/20 10:11:13;;;;;;;59.77;27.22;;;;;;;6.32;47.68;99352.66;1706209;83;21156;-64
2022/01/20 10:13:51;;;;;;;42.60;20.50;;;;;;;5.85;49.38;99346.67;1687848;84;21066;-65
2022/01/20 10:16:19;;;;;;;38.67;19.30;;;;;;;5.80;48.88;99335.05;1703925;83;21116;-65
2022/01/20 10:18:51;;;;;;;40.20;20.65;;;;;;;5.64;48.75;99338.56;1731167;81;21940;-64
2022/01/20 10:21:29;;;;;;;44.53;20.32;;;;;;;5.51;50.32;99335.90;1735060;82;20999;-65
2022/01/20 10:24:12;;;;;;;45.40;19.48;;;;;;;5.59;49.56;99330.02;1675584;82;21124;-66
2022/01/20 10:26:41;;;;;;;39.27;20.37;;;;;;;5.57;49.46;99333.58;1709914;83;21132;-63
2022/01/20 10:29:14;;;;;;;49.25;22.58;;;;;;;5.48;49.23;99329.93;1712208;82;21187;-64
2022/01/20 10:31:52;;;;;;;108.75;45.63;;;;;;;5.51;50.25;99326.77;1728707;81;21156;-65
2022/01/20 10:34:31;;;;;;;93.52;39.70;;;;;;;5.63;52.68;99314.63;1748806;82;21109;-64
2022/01/20 10:37:15;;;;;;;52.62;21.97;;;;;;;5.96;51.14;99304.11;1749174;82;21598;-65
2022/01/20 10:39:46;;;;;;;48.55;23.38;;;;;;;6.14;48.19;99301.34;1740975;81;21699;-64
2022/01/20 10:42:28;;;;;;;45.63;22.05;;;;;;;6.28;48.34;99299.58;1749814;81;21040;-64
2022/01/20 10:44:56;;;;;;;36.55;17.87;;;;;;;6.43;47.41;99287.78;1745727;81;21961;-65
2022/01/20 10:47:27;;;;;;;36.50;18.87;;;;;;;6.53;46.94;99276.55;1745840;81;21061;-64
2022/01/20 10:49:56;;;;;;;37.27;19.40;;;;;;;6.66;46.44;99273.45;1719988;82;21160;-64
2022/01/20 10:52:27;;;;;;;38.25;17.15;;;;;;;6.73;46.19;99253.16;1746954;82;21863;-64
2022/01/20 10:54:55;;;;;;;65.25;31.25;;;;;;;6.72;45.66;99251.47;1726686;82;21163;-63
2022/01/20 10:57:33;;;;;;;83.12;35.43;;;;;;;6.62;48.46;99248.30;1748435;82;21655;-68
2022/01/20 11:00:10;;;;;;;75.28;31.15;;;;;;;6.80;47.46;99253.34;1706235;83;21116;-67
2022/01/20 11:02:41;;;;;;;57.05;24.12;;;;;;;6.85;47.17;99250.10;1747658;82;21116;-66
2022/01/20 11:05:12;;;;;;;44.10;20.70;;;;;;;6.98;45.99;99248.38;1719787;83;21121;-67
2022/01/20 11:07:42;;;;;;;49.23;23.62;;;;;;;7.09;45.78;99235.74;1720182;82;21064;-72
2022/01/20 11:10:10;;;;;;;34.00;18.17;;;;;;;7.23;45.14;99242.62;1691034;83;21968;-67
2022/01/20 11:12:43;;;;;;;36.10;19.30;;;;;;;6.86;44.94;99245.28;1684916;85;21179;-67
2022/01/20 11:15:20;;;;;;;36.10;19.85;;;;;;;5.98;46.98;99237.39;1709338;83;21095;-68
2022/01/20 11:17:53;;;;;;;39.58;19.05;;;;;;;5.94;48.69;99234.47;1749577;81;21112;-66
2022/01/20 11:20:22;;;;;;;81.82;37.10;;;;;;;6.03;47.45;99237.66;1729147;81;21456;-66
2022/01/20 11:22:56;;;;;;;42.60;20.35;;;;;;;6.08;49.50;99238.36;1745338;81;21048;-65
2022/01/20 11:25:27;;;;;;;42.23;18.20;;;;;;;6.06;47.66;99232.33;1740090;82;21615;-65
2022/01/20 11:28:08;;;;;;;55.38;24.90;;;;;;;5.97;47.06;99246.16;1735140;80;21588;-64
2022/01/20 11:30:42;;;;;;;50.35;23.42;;;;;;;5.81;48.08;99241.84;1731935;81;21140;-64
2022/01/20 11:33:17;;;;;;;50.63;25.70;;;;;;;5.86;48.87;99246.00;1734941;82;21037;-64
2022/01/20 11:35:59;;;;;;;44.83;20.65;;;;;;;6.22;48.81;99244.90;1735054;81;21596;-65
2022/01/20 11:38:41;;;;;;;45.30;22.42;;;;;;;6.14;47.92;99245.59;1740213;82;21592;-67
2022/01/20 11:41:08;;;;;;;41.55;20.35;;;;;;;5.71;49.20;99227.37;1734482;81;21072;-67
2022/01/20 11:43:51;;;;;;;67.08;30.55;;;;;;;4.99;50.19;99233.85;1738515;82;21060;-66
2022/01/20 11:46:24;;;;;;;43.40;20.43;;;;;;;4.40;52.13;99220.23;1743408;82;21069;-65
2022/01/20 11:49:08;;;;;;;49.55;22.65;;;;;;;3.91;53.06;99223.22;1738020;81;21109;-66
2022/01/20 11:51:51;;;;;;;61.00;27.27;;;;;;;3.71;54.29;99226.33;1737432;82;21033;-66
2022/01/20 11:54:35;;;;;;;41.63;18.37;;;;;;;3.83;54.39;99223.42;1723633;82;21084;-66
2022/01/20 11:57:16;;;;;;;41.73;21.45;;;;;;;3.64;54.18;99210.44;1732546;82;21018;-66
2022/01/20 11:59:55;;;;;;;40.90;17.32;;;;;;;3.69;55.37;99218.99;1729127;82;22162;-67
2022/01/20 12:02:35;;;;;;;50.90;23.55;;;;;;;4.10;54.02;99218.44;1734625;82;22009;-66
2022/01/20 12:05:20;;;;;;;75.62;30.45;;;;;;;3.84;54.88;99217.30;1737454;82;21009;-66
2022/01/20 12:07:51;;;;;;;77.32;34.15;;;;;;;3.43;56.41;99217.84;1738916;82;21162;-66
2022/01/20 12:10:26;;;;;;;60.95;26.25;;;;;;;2.91;57.79;99212.45;1749311;82;20998;-66
2022/01/20 12:12:53;;;;;;;50.83;24.52;;;;;;;2.71;59.04;99207.23;1749738;82;21083;-66
2022/01/20 12:15:22;;;;;;;56.80;23.67;;;;;;;2.53;59.78;99204.95;1715935;81;21188;-66
2022/01/20 12:17:52;;;;;;;54.42;24.18;;;;;;;2.38;61.07;99196.17;1719773;82;21060;-67
2022/01/20 12:20:23;;;;;;;55.38;21.52;;;;;;;2.20;61.33;99196.91;1717307;82;21005;-65
2022/01/20 12:22:50;;;;;;;41.90;18.30;;;;;;;2.07;61.70;99196.29;1733851;81;21018;-66
2022/01/20 12:25:29;;;;;;;44.48;20.35;;;;;;;1.81;63.84;99186.33;1749829;81;21128;-66
2022/01/20 12:28:05;;;;;;;61.85;23.73;;;;;;;1.81;63.84;99186.33;1704584;83;21142;-66
2022/01/20 12:30:32;;;;;;;37.67;16.23;;;;;;;1.67;64.13;99177.47;1742240;81;21132;-66
2022/01/20 12:33:12;;;;;;;82.42;32.30;;;;;;;1.58;64.68;99178.06;1712326;82;21105;-65
2022/01/20 12:35:51;;;;;;;48.87;20.80;;;;;;;1.52;66.13;99174.25;1681826;83;21093;-67
2022/01/20 12:38:23;;;;;;;72.00;26.35;;;;;;;1.48;65.50;99174.76;1682868;84;21076;-66